createdAt,value
2022-10-18T00:00:43.123Z,100085.66
2022-10-18T00:03:10.615Z,100085.94
2022-10-18T00:05:37.366Z,100084.81
2022-10-18T00:08:03.643Z,100088.66
2022-10-18T00:10:30.142Z,100088.66
2022-10-18T00:12:56.609Z,100085.66
2022-10-18T00:15:22.938Z,100087.25
2022-10-18T00:17:49.705Z,100076.63
2022-10-18T00:20:16.280Z,100071.13
2022-10-18T00:22:42.606Z,100069.97
2022-10-18T00:25:09.447Z,100069.03
2022-10-18T00:27:35.736Z,100059.59
2022-10-18T00:30:02.021Z,100065.59
2022-10-18T00:32:29.009Z,100061.41
2022-10-18T00:34:55.564Z,100066.34
2022-10-18T00:37:21.829Z,100067.28
2022-10-18T00:39:48.523Z,100067.28
2022-10-18T00:42:14.879Z,100068.22
2022-10-18T00:44:41.213Z,100057.31
2022-10-18T00:47:07.854Z,100059.13
2022-10-18T00:49:37.605Z,100056.19
2022-10-18T00:52:03.916Z,100052.09
2022-10-18T00:54:31.285Z,100057.31
2022-10-18T00:56:58.490Z,100052.19
2022-10-18T00:59:24.813Z,100062.44
2022-10-18T01:01:51.355Z,100054.28
2022-10-18T01:04:17.761Z,100047.38
2022-10-18T01:06:44.282Z,100053.81
2022-10-18T01:09:10.876Z,100045.84
2022-10-18T01:11:37.195Z,100051.16
2022-10-18T01:14:03.561Z,100040.63
2022-10-18T01:16:30.276Z,100041.28
2022-10-18T01:18:58.904Z,100044.13
2022-10-18T01:21:25.274Z,100039.78
2022-10-18T01:23:54.454Z,100037.13
2022-10-18T01:26:20.801Z,100040.09
2022-10-18T01:28:47.187Z,100042.47
2022-10-18T01:31:16.213Z,100031.09
2022-10-18T01:33:42.469Z,100039.06
2022-10-18T01:36:10.803Z,100036.31
2022-10-18T01:38:37.547Z,100037.72
2022-10-18T01:41:04.711Z,100040.09
2022-10-18T01:43:31.005Z,100032.16
2022-10-18T01:45:57.650Z,100025.13
2022-10-18T01:48:24.110Z,100024.56
2022-10-18T01:50:50.808Z,100027.22
2022-10-18T01:53:18.258Z,100021.91
2022-10-18T01:55:44.885Z,100022.84
2022-10-18T01:58:11.835Z,100021.13
2022-10-18T02:00:38.386Z,100021.13
2022-10-18T02:03:04.745Z,100013.59
2022-10-18T02:05:31.014Z,100018.91
2022-10-18T02:08:12.189Z,100022.69
2022-10-18T02:10:44.349Z,100023.41
2022-10-18T02:13:10.928Z,100023.88
2022-10-18T02:15:37.344Z,100025.97
2022-10-18T02:18:03.641Z,100016.22
2022-10-18T02:20:30.478Z,100014.97
2022-10-18T02:22:56.781Z,100015.94
2022-10-18T02:25:23.124Z,100016.03
2022-10-18T02:27:49.718Z,100012.78
2022-10-18T02:30:16.247Z,100012.78
2022-10-18T02:32:42.514Z,100006.44
2022-10-18T02:46:08.625Z,100030.97
2022-10-18T02:48:34.962Z,100025.78
2022-10-18T02:51:01.236Z,100034.50
2022-10-18T02:53:27.624Z,100029.63
2022-10-18T02:55:53.890Z,100031.88
2022-10-18T02:58:20.169Z,100032.47
2022-10-18T03:00:46.647Z,100025.84
2022-10-18T03:03:12.944Z,100025.19
2022-10-18T03:05:39.233Z,100022.63
2022-10-18T03:08:05.786Z,100030.75
2022-10-18T03:10:32.115Z,100031.88
2022-10-18T03:12:58.793Z,100032.56
2022-10-18T03:15:28.232Z,100035.66
2022-10-18T03:17:54.486Z,100039.59
2022-10-18T03:20:21.013Z,100034.22
2022-10-18T03:22:47.415Z,100042.81
2022-10-18T03:25:14.233Z,100039.75
2022-10-18T03:27:44.661Z,100037.03
2022-10-18T03:30:11.983Z,100048.66
2022-10-18T03:32:38.752Z,100046.41
2022-10-18T03:35:05.044Z,100058.56
2022-10-18T03:37:31.493Z,100063.38
2022-10-18T03:39:57.791Z,100059.78
2022-10-18T03:42:24.071Z,100063.03
2022-10-18T03:44:50.401Z,100062.00
2022-10-18T03:47:17.991Z,100058.41
2022-10-18T03:49:44.269Z,100053.41
2022-10-18T03:52:10.812Z,100061.41
2022-10-18T03:54:37.091Z,100064.84
2022-10-18T03:57:03.375Z,100067.66
2022-10-18T03:59:29.664Z,100065.81
2022-10-18T04:01:56.038Z,100062.91
2022-10-18T04:04:22.348Z,100068.59
2022-10-18T04:06:48.923Z,100068.50
2022-10-18T04:09:15.225Z,100065.59
2022-10-18T04:11:41.949Z,100065.59
2022-10-18T04:14:08.245Z,100063.28
2022-10-18T04:19:05.689Z,100056.44
2022-10-18T04:21:32.500Z,100056.28
2022-10-18T04:24:01.127Z,100057.13
2022-10-18T04:26:27.632Z,100052.69
2022-10-18T04:28:54.429Z,100057.78
2022-10-18T04:31:21.331Z,100058.38
2022-10-18T04:33:47.611Z,100061.19
2022-10-18T04:36:15.166Z,100062.88
2022-10-18T04:38:41.674Z,100058.28
2022-10-18T04:41:07.966Z,100062.56
2022-10-18T04:43:34.621Z,100063.41
2022-10-18T04:46:00.915Z,100074.88
2022-10-18T04:48:27.292Z,100070.59
2022-10-18T04:50:53.869Z,100066.22
2022-10-18T04:53:20.144Z,100066.47
2022-10-18T04:55:46.414Z,100063.81
2022-10-18T04:58:12.709Z,100056.38
2022-10-18T05:00:40.133Z,100062.44
2022-10-18T05:03:06.600Z,100066.69
2022-10-18T05:05:43.484Z,100059.34
2022-10-18T05:08:19.579Z,100057.13
2022-10-18T05:10:46.234Z,100059.34
2022-10-18T05:13:12.850Z,100061.06
2022-10-18T05:15:39.342Z,100055.53
2022-10-18T05:18:05.885Z,100059.59
2022-10-18T05:20:32.411Z,100057.66
2022-10-18T05:22:58.652Z,100058.34
2022-10-18T05:25:25.184Z,100057.41
2022-10-18T05:27:51.471Z,100061.06
2022-10-18T05:30:17.916Z,100070.19
2022-10-18T05:32:44.370Z,100064.72
2022-10-18T05:35:10.806Z,100061.16
2022-10-18T05:37:37.139Z,100064.97
2022-10-18T05:40:03.609Z,100070.28
2022-10-18T05:42:30.426Z,100075.06
2022-10-18T05:44:56.832Z,100078.00
2022-10-18T05:47:23.240Z,100075.38
2022-10-18T05:49:49.766Z,100067.50
2022-10-18T05:52:16.196Z,100071.22
2022-10-18T05:54:42.725Z,100067.09
2022-10-18T05:57:09.015Z,100063.34
2022-10-18T05:59:35.295Z,100061.06
2022-10-18T06:02:01.780Z,100062.00
2022-10-18T06:04:28.075Z,100064.97
2022-10-18T06:06:54.419Z,100067.47
2022-10-18T06:09:20.795Z,100067.22
2022-10-18T06:11:47.085Z,100074.06
2022-10-18T06:14:14.152Z,100072.88
2022-10-18T06:16:40.621Z,100075.22
2022-10-18T06:19:14.229Z,100076.53
2022-10-18T06:21:40.535Z,100077.44
2022-10-18T06:24:10.933Z,100074.00
2022-10-18T06:26:37.192Z,100076.09
2022-10-18T06:29:03.542Z,100085.34
2022-10-18T06:31:29.980Z,100082.47
2022-10-18T06:33:56.385Z,100090.72
2022-10-18T06:36:22.875Z,100092.97
2022-10-18T06:38:49.917Z,100089.13
2022-10-18T06:41:16.184Z,100095.03
2022-10-18T06:43:42.443Z,100095.72
2022-10-18T06:46:09.089Z,100095.41
2022-10-18T06:48:38.324Z,100096.97
2022-10-18T06:51:04.590Z,100097.91
2022-10-18T06:53:30.978Z,100100.22
2022-10-18T06:55:57.310Z,100099.03
2022-10-18T06:58:23.581Z,100105.19
2022-10-18T07:00:49.848Z,100100.66
2022-10-18T07:03:16.205Z,100099.19
2022-10-18T07:05:42.482Z,100102.06
2022-10-18T07:08:09.024Z,100103.53
2022-10-18T07:10:35.518Z,100112.78
2022-10-18T07:13:27.341Z,100110.91
2022-10-18T07:15:48.995Z,100106.09
2022-10-18T07:18:15.247Z,100101.31
2022-10-18T07:20:41.514Z,100101.00
2022-10-18T07:23:08.062Z,100102.94
2022-10-18T07:25:34.331Z,100103.88
2022-10-18T07:28:00.589Z,100097.56
2022-10-18T07:30:29.748Z,100094.91
2022-10-18T07:32:56.045Z,100094.59
2022-10-18T07:35:22.355Z,100098.69
2022-10-18T07:37:48.951Z,100102.19
2022-10-18T07:40:17.643Z,100096.72
2022-10-18T07:42:51.255Z,100100.66
2022-10-18T07:45:20.629Z,100098.91
2022-10-18T07:47:47.132Z,100098.66
2022-10-18T07:50:13.457Z,100097.28
2022-10-18T07:52:41.870Z,100090.28
2022-10-18T07:55:08.211Z,100087.72
2022-10-18T07:57:34.962Z,100091.53
2022-10-18T08:00:01.694Z,100094.72
2022-10-18T08:02:29.106Z,100093.25
2022-10-18T08:04:55.615Z,100087.75
2022-10-18T08:07:21.997Z,100090.84
2022-10-18T08:09:48.335Z,100087.41
2022-10-18T08:12:14.652Z,100086.75
2022-10-18T08:14:41.714Z,100086.56
2022-10-18T08:17:08.005Z,100087.13
2022-10-18T08:19:37.123Z,100095.69
2022-10-18T08:22:03.965Z,100083.56
2022-10-18T08:24:30.250Z,100082.50
2022-10-18T08:26:56.771Z,100082.44
2022-10-18T08:29:25.862Z,100093.09
2022-10-18T08:31:54.361Z,100083.03
2022-10-18T08:34:20.632Z,100089.28
2022-10-18T08:36:47.230Z,100081.56
2022-10-18T08:39:13.481Z,100073.84
2022-10-18T08:41:39.893Z,100070.72
2022-10-18T08:44:07.509Z,100072.81
2022-10-18T08:46:34.031Z,100069.59
2022-10-18T08:49:02.784Z,100064.66
2022-10-18T08:51:30.049Z,100067.59
2022-10-18T08:53:56.350Z,100071.09
2022-10-18T08:56:22.633Z,100067.72
2022-10-18T08:58:49.147Z,100070.25
2022-10-18T09:01:15.443Z,100065.31
2022-10-18T09:03:41.767Z,100069.41
2022-10-18T09:06:08.185Z,100067.91
2022-10-18T09:08:37.626Z,100063.50
2022-10-18T09:11:03.906Z,100063.97
2022-10-18T09:13:30.385Z,100062.66
2022-10-18T09:15:56.713Z,100061.03
2022-10-18T09:18:22.979Z,100062.78
2022-10-18T09:20:49.453Z,100052.53
2022-10-18T09:23:15.851Z,100053.81
2022-10-18T09:25:42.339Z,100052.19
2022-10-18T09:28:08.720Z,100050.22
2022-10-18T09:30:37.403Z,100050.88
2022-10-18T09:33:03.735Z,100056.66
2022-10-18T09:35:31.199Z,100052.00
2022-10-18T09:37:57.536Z,100045.75
2022-10-18T09:40:24.278Z,100046.09
2022-10-18T09:42:50.714Z,100039.72
2022-10-18T09:45:16.977Z,100039.13
2022-10-18T09:47:43.324Z,100039.75
2022-10-18T09:50:09.752Z,100033.19
2022-10-18T09:52:36.060Z,100037.97
2022-10-18T09:55:02.361Z,100030.72
2022-10-18T09:57:29.486Z,100027.59
2022-10-18T09:59:56.034Z,100030.19
2022-10-18T10:02:23.362Z,100027.50
2022-10-18T10:04:49.990Z,100026.56
2022-10-18T10:07:17.286Z,100026.75
2022-10-18T10:09:43.572Z,100017.59
2022-10-18T10:12:10.099Z,100019.03
2022-10-18T10:14:36.353Z,100027.97
2022-10-18T10:17:02.783Z,100022.56
2022-10-18T10:19:30.172Z,100021.63
2022-10-18T10:21:56.604Z,100018.97
2022-10-18T10:24:24.992Z,100015.72
2022-10-18T10:26:53.962Z,100021.53
2022-10-18T10:29:33.572Z,100020.09
2022-10-18T10:32:08.566Z,100013.00
2022-10-18T10:34:35.278Z,100011.50
2022-10-18T10:37:03.989Z,100013.22
2022-10-18T10:39:30.656Z,100004.50
2022-10-18T10:41:56.955Z,100000.88
2022-10-18T10:44:23.239Z,100008.22
2022-10-18T10:46:49.880Z,100007.19
2022-10-18T10:49:39.150Z,99995.25
2022-10-18T10:52:15.470Z,99993.16
2022-10-18T10:54:52.107Z,100003.97
2022-10-18T10:57:19.084Z,99994.13
2022-10-18T10:59:45.728Z,99983.84
2022-10-18T11:02:12.199Z,99976.44
2022-10-18T11:04:38.504Z,99984.22
2022-10-18T11:07:05.792Z,99978.72
2022-10-18T11:09:32.293Z,99975.97
2022-10-18T11:11:59.182Z,99976.69
2022-10-18T11:14:26.880Z,99970.19
2022-10-18T11:16:53.300Z,99962.63
2022-10-18T11:19:19.941Z,99959.03
2022-10-18T11:21:46.250Z,99953.69
2022-10-18T11:24:12.638Z,99956.69
2022-10-18T11:26:41.074Z,99952.94
2022-10-18T11:29:09.164Z,99960.94
2022-10-18T11:31:35.433Z,99958.16
2022-10-18T11:34:09.287Z,99957.19
2022-10-18T11:36:36.833Z,99952.59
2022-10-18T11:39:05.987Z,99948.59
2022-10-18T11:41:32.287Z,99946.97
2022-10-18T11:44:03.679Z,99941.88
2022-10-18T11:46:30.478Z,99940.88
2022-10-18T11:48:56.869Z,99943.88
2022-10-18T11:51:34.097Z,99935.53
2022-10-18T11:54:05.083Z,99940.38
2022-10-18T11:56:31.340Z,99946.97
2022-10-18T11:58:57.637Z,99940.00
2022-10-18T12:01:27.697Z,99937.91
2022-10-18T12:03:55.018Z,99931.38
2022-10-18T12:06:21.277Z,99931.25
2022-10-18T12:08:48.205Z,99931.25
2022-10-18T12:11:14.449Z,99931.78
2022-10-18T12:13:40.714Z,99932.50
2022-10-18T12:16:07.115Z,99923.56
2022-10-18T12:18:35.461Z,99920.47
2022-10-18T12:21:01.799Z,99914.41
2022-10-18T12:23:28.276Z,99905.63
2022-10-18T12:25:54.574Z,99905.22
2022-10-18T12:28:20.863Z,99903.91
2022-10-18T12:30:47.192Z,99891.47
2022-10-18T12:33:27.923Z,99895.13
2022-10-18T12:35:55.112Z,99896.44
2022-10-18T12:38:21.378Z,99891.22
2022-10-18T12:40:47.816Z,99893.09
2022-10-18T12:43:14.086Z,99883.88
2022-10-18T12:45:40.365Z,99877.16
2022-10-18T12:48:06.667Z,99879.22
2022-10-18T12:50:33.410Z,99872.69
2022-10-18T12:53:00.695Z,99867.59
2022-10-18T12:55:27.261Z,99862.88
2022-10-18T12:57:53.870Z,99862.63
2022-10-18T13:00:20.138Z,99864.63
2022-10-18T13:02:46.448Z,99865.22
2022-10-18T13:05:22.296Z,99865.59
2022-10-18T13:07:59.182Z,99858.91
2022-10-18T13:10:28.677Z,99864.72
2022-10-18T13:12:55.077Z,99851.25
2022-10-18T13:15:26.250Z,99848.75
2022-10-18T13:17:54.130Z,99845.31
2022-10-18T13:20:25.983Z,99841.97
2022-10-18T13:22:52.927Z,99840.13
2022-10-18T13:25:21.378Z,99840.63
2022-10-18T13:27:49.023Z,99841.84
2022-10-18T13:30:15.485Z,99832.81
2022-10-18T13:32:42.538Z,99825.78
2022-10-18T13:35:09.190Z,99818.50
2022-10-18T13:37:39.763Z,99813.38
2022-10-18T13:40:06.298Z,99816.00
2022-10-18T13:42:32.882Z,99813.94
2022-10-18T13:45:00.376Z,99816.00
2022-10-18T13:47:26.790Z,99816.50
2022-10-18T13:49:58.534Z,99815.53
2022-10-18T13:52:26.696Z,99809.56
2022-10-18T13:54:53.183Z,99805.00
2022-10-18T13:57:19.467Z,99804.50
2022-10-18T13:59:45.733Z,99806.09
2022-10-18T14:02:12.199Z,99808.16
2022-10-18T14:04:38.482Z,99803.03
2022-10-18T14:07:07.256Z,99806.75
2022-10-18T14:09:43.582Z,99800.75
2022-10-18T14:12:10.966Z,99801.47
2022-10-18T14:14:37.406Z,99797.81
2022-10-18T14:17:03.685Z,99798.06
2022-10-18T14:19:29.972Z,99796.97
2022-10-18T14:21:57.059Z,99790.97
2022-10-18T14:24:23.365Z,99791.69
2022-10-18T14:26:49.621Z,99796.06
2022-10-18T14:29:16.194Z,99802.97
2022-10-18T14:31:42.509Z,99795.53
2022-10-18T14:34:08.782Z,99792.88
2022-10-18T14:36:35.150Z,99792.59
2022-10-18T14:39:01.419Z,99784.19
2022-10-18T14:41:27.679Z,99793.06
2022-10-18T14:43:54.087Z,99782.75
2022-10-18T14:46:20.369Z,99779.22
2022-10-18T14:48:46.672Z,99775.63
2022-10-18T14:51:13.387Z,99774.06
2022-10-18T14:53:39.686Z,99780.63
2022-10-18T14:56:05.937Z,99781.75
2022-10-18T14:58:32.284Z,99778.22
2022-10-18T15:00:58.597Z,99778.88
2022-10-18T15:03:24.970Z,99776.88
2022-10-18T15:05:51.293Z,99779.69
2022-10-18T15:08:18.116Z,99782.16
2022-10-18T15:10:44.681Z,99781.03
2022-10-18T15:13:11.885Z,99779.47
2022-10-18T15:15:38.377Z,99779.97
2022-10-18T15:18:04.927Z,99774.88
2022-10-18T15:20:31.514Z,99775.13
2022-10-18T15:22:57.920Z,99771.75
2022-10-18T15:25:26.777Z,99762.03
2022-10-18T15:27:54.703Z,99764.09
2022-10-18T15:30:20.982Z,99763.97
2022-10-18T15:32:47.240Z,99757.19
2022-10-18T15:35:14.449Z,99762.75
2022-10-18T15:37:40.703Z,99765.16
2022-10-18T15:40:06.983Z,99767.44
2022-10-18T15:42:34.126Z,99767.31
2022-10-18T15:45:00.403Z,99767.44
2022-10-18T15:47:26.705Z,99765.16
2022-10-18T15:49:53.808Z,99774.69
2022-10-18T15:52:20.105Z,99773.47
2022-10-18T15:57:15.262Z,99766.75
2022-10-18T15:59:43.946Z,99767.47
2022-10-18T16:02:12.280Z,99767.72
2022-10-18T16:04:38.722Z,99762.13
2022-10-18T16:07:05.012Z,99762.84
2022-10-18T16:09:31.358Z,99764.56
2022-10-18T16:11:58.335Z,99767.63
2022-10-18T16:14:25.242Z,99774.06
2022-10-18T16:16:51.644Z,99773.13
2022-10-18T16:19:18.296Z,99772.53
2022-10-18T16:21:44.720Z,99768.97
2022-10-18T16:24:11.014Z,99774.69
2022-10-18T16:26:37.512Z,99770.06
2022-10-18T16:29:03.833Z,99768.34
2022-10-18T16:31:30.120Z,99756.84
2022-10-18T16:33:56.634Z,99757.78
2022-10-18T16:36:23.537Z,99759.09
2022-10-18T16:38:49.827Z,99761.31
2022-10-18T16:41:16.202Z,99758.59
2022-10-18T16:43:42.996Z,99758.59
2022-10-18T16:46:09.455Z,99753.25
2022-10-18T16:48:35.933Z,99758.00
2022-10-18T16:51:02.210Z,99760.69
2022-10-18T16:53:28.672Z,99766.03
2022-10-18T16:55:59.245Z,99763.88
2022-10-18T16:58:25.511Z,99766.28
2022-10-18T17:00:51.799Z,99759.75
2022-10-18T17:03:18.792Z,99763.97
2022-10-18T17:05:45.132Z,99757.81
2022-10-18T17:08:14.289Z,99761.69
2022-10-18T17:10:43.280Z,99764.72
2022-10-18T17:13:09.561Z,99766.03
2022-10-18T17:15:35.972Z,99770.91
2022-10-18T17:18:02.696Z,99771.91
2022-10-18T17:20:29.224Z,99771.66
2022-10-18T17:22:55.567Z,99767.78
2022-10-18T17:25:22.878Z,99761.91
2022-10-18T17:27:49.788Z,99761.91
2022-10-18T17:30:16.546Z,99760.00
2022-10-18T17:32:43.896Z,99765.44
2022-10-18T17:35:10.388Z,99770.28
2022-10-18T17:37:37.144Z,99765.06
2022-10-18T17:40:05.303Z,99759.97
2022-10-18T17:42:32.059Z,99766.91
2022-10-18T17:44:58.668Z,99768.72
2022-10-18T17:47:28.173Z,99759.00
2022-10-18T17:49:55.505Z,99766.41
2022-10-18T17:52:22.800Z,99774.94
2022-10-18T17:54:49.425Z,99771.06
2022-10-18T17:57:16.857Z,99769.66
2022-10-18T17:59:43.769Z,99763.59
2022-10-18T18:02:10.639Z,99762.16
2022-10-18T18:04:37.411Z,99766.44
2022-10-18T18:07:03.975Z,99762.81
2022-10-18T18:09:30.937Z,99762.81
2022-10-18T18:11:57.599Z,99760.88
2022-10-18T18:14:24.371Z,99760.47
2022-10-18T18:16:51.418Z,99753.78
2022-10-18T18:19:18.701Z,99753.84
2022-10-18T18:21:45.760Z,99749.28
2022-10-18T18:24:12.895Z,99747.47
2022-10-18T18:26:39.677Z,99741.78
2022-10-18T18:29:06.396Z,99746.28
2022-10-18T18:31:38.629Z,99748.75
2022-10-18T18:34:08.123Z,99744.25
2022-10-18T18:36:35.177Z,99742.16
2022-10-18T18:39:02.049Z,99742.63
2022-10-18T18:41:29.604Z,99742.16
2022-10-18T18:43:56.556Z,99738.03
2022-10-18T18:46:23.826Z,99737.75
2022-10-18T18:48:52.080Z,99740.78
2022-10-18T18:51:21.504Z,99740.66
2022-10-18T18:53:48.290Z,99746.72
2022-10-18T18:56:15.187Z,99751.22
2022-10-18T18:58:41.730Z,99748.66
2022-10-18T19:01:08.435Z,99742.38
2022-10-18T19:03:35.289Z,99739.81
2022-10-18T19:06:02.156Z,99742.31
2022-10-18T19:08:29.354Z,99737.91
2022-10-18T19:10:56.281Z,99734.31
2022-10-18T19:13:23.264Z,99718.75
2022-10-18T19:15:49.954Z,99722.03
2022-10-18T19:18:20.385Z,99719.50
2022-10-18T19:20:50.590Z,99716.78
2022-10-18T19:23:17.078Z,99716.34
2022-10-18T19:25:44.820Z,99719.75
2022-10-18T19:28:12.520Z,99713.50
2022-10-18T19:30:40.367Z,99707.38
2022-10-18T19:33:07.277Z,99719.72
2022-10-18T19:35:34.325Z,99730.84
2022-10-18T19:38:01.056Z,99727.72
2022-10-18T19:40:29.405Z,99730.19
2022-10-18T19:42:55.933Z,99732.56
2022-10-18T19:45:22.239Z,99734.59
2022-10-18T19:47:52.177Z,99735.75
2022-10-18T19:50:19.072Z,99739.38
2022-10-18T19:52:46.718Z,99738.97
2022-10-18T19:55:13.402Z,99741.53
2022-10-18T19:57:41.600Z,99742.84
2022-10-18T20:00:10.878Z,99739.69
2022-10-18T20:02:38.730Z,99734.03
2022-10-18T20:05:07.330Z,99747.44
2022-10-18T20:07:34.013Z,99736.81
2022-10-18T20:10:00.630Z,99745.47
2022-10-18T20:12:27.186Z,99749.25
2022-10-18T20:14:55.853Z,99746.41
2022-10-18T20:17:22.923Z,99741.31
2022-10-18T20:19:49.515Z,99744.16
2022-10-18T20:22:15.801Z,99736.69
2022-10-18T20:24:42.116Z,99737.66
2022-10-18T20:27:08.666Z,99762.22
2022-10-18T20:29:35.151Z,99750.31
2022-10-18T20:32:01.454Z,99750.91
2022-10-18T20:34:28.014Z,99752.03
2022-10-18T20:36:54.443Z,99753.53
2022-10-18T20:39:20.706Z,99754.47
2022-10-18T20:41:47.875Z,99753.53
2022-10-18T20:44:14.220Z,99755.03
2022-10-18T20:46:40.592Z,99749.56
2022-10-18T20:49:06.885Z,99762.47
2022-10-18T20:51:33.180Z,99760.84
2022-10-18T20:53:59.793Z,99762.03
2022-10-18T20:56:26.806Z,99759.84
2022-10-18T20:58:53.101Z,99754.63
2022-10-18T21:01:20.718Z,99752.66
2022-10-18T21:03:47.447Z,99760.28
2022-10-18T21:06:13.721Z,99753.81
2022-10-18T21:08:40.034Z,99756.06
2022-10-18T21:11:06.658Z,99745.84
2022-10-18T21:13:33.364Z,99748.56
2022-10-18T21:15:59.682Z,99745.78
2022-10-18T21:18:26.232Z,99750.25
2022-10-18T21:20:52.697Z,99756.91
2022-10-18T21:23:19.551Z,99758.84
2022-10-18T21:25:47.146Z,99764.78
2022-10-18T21:28:14.009Z,99759.91
2022-10-18T21:30:40.301Z,99757.25
2022-10-18T21:33:07.177Z,99768.00
2022-10-18T21:35:33.526Z,99768.06
2022-10-18T21:37:59.817Z,99754.53
2022-10-18T21:40:26.723Z,99758.84
2022-10-18T21:42:53.032Z,99764.16
2022-10-18T21:45:19.522Z,99751.59
2022-10-18T21:47:46.055Z,99752.03
2022-10-18T21:50:12.339Z,99757.00
2022-10-18T21:52:39.097Z,99736.13
2022-10-18T21:55:05.647Z,99740.91
2022-10-18T21:57:31.994Z,99733.41
2022-10-18T21:59:58.276Z,99734.28
2022-10-18T22:02:24.931Z,99745.63
2022-10-18T22:04:51.268Z,99739.69
2022-10-18T22:07:17.513Z,99748.94
2022-10-18T22:09:44.057Z,99744.53
2022-10-18T22:12:13.196Z,99750.16
2022-10-18T22:14:39.511Z,99750.31
2022-10-18T22:17:05.988Z,99760.81
2022-10-18T22:19:32.397Z,99756.19
2022-10-18T22:21:58.732Z,99758.72
2022-10-18T22:24:25.778Z,99757.66
2022-10-18T22:26:52.072Z,99753.09
2022-10-18T22:29:18.330Z,99760.47
2022-10-18T22:31:44.652Z,99760.09
2022-10-18T22:34:11.060Z,99771.03
2022-10-18T22:36:37.373Z,99770.84
2022-10-18T22:39:03.954Z,99772.50
2022-10-18T22:41:30.208Z,99773.19
2022-10-18T22:43:59.769Z,99763.72
2022-10-18T22:46:29.028Z,99770.13
2022-10-18T22:48:55.299Z,99763.66
2022-10-18T22:51:21.583Z,99779.31
2022-10-18T22:53:48.751Z,99774.78
2022-10-18T22:56:15.038Z,99783.66
2022-10-18T22:58:41.292Z,99770.13
2022-10-18T23:01:07.706Z,99784.56
2022-10-18T23:03:35.022Z,99781.03
2022-10-18T23:06:03.448Z,99783.06
2022-10-18T23:08:32.097Z,99776.78
2022-10-18T23:10:58.404Z,99769.88
2022-10-18T23:13:24.697Z,99773.31
2022-10-18T23:15:51.563Z,99794.69
2022-10-18T23:18:17.823Z,99789.72
2022-10-18T23:20:44.312Z,99783.16
2022-10-18T23:23:10.883Z,99793.94
2022-10-18T23:25:37.176Z,99786.22
2022-10-18T23:28:03.513Z,99804.28
2022-10-18T23:30:30.715Z,99785.22
2022-10-18T23:32:57.096Z,99782.78
2022-10-18T23:35:23.410Z,99805.84
2022-10-18T23:37:50.783Z,99802.75
2022-10-18T23:40:17.211Z,99800.44
2022-10-18T23:42:43.518Z,99794.34
2022-10-18T23:45:09.877Z,99804.16
2022-10-18T23:47:36.355Z,99809.66
2022-10-18T23:50:03.247Z,99815.56
2022-10-18T23:52:29.631Z,99820.22
2022-10-18T23:54:56.058Z,99814.75
2022-10-18T23:57:24.631Z,99816.91
2022-10-18T23:59:50.957Z,99823.72
